sensor_id;sensor_type;location;lat;lon;timestamp;P1;durP1;ratioP1;P2;durP2;ratioP2
15889;SDS011;8043;49.388;12.128;2023-06-04T00:01:41;2.57;;;0.87;;
15889;SDS011;8043;49.388;12.128;2023-06-04T00:06:44;0.80;;;0.80;;
15889;SDS011;8043;49.388;12.128;2023-06-04T00:11:47;1.90;;;0.80;;
15889;SDS011;8043;49.388;12.128;2023-06-04T00:16:49;1.77;;;1.30;;
15889;SDS011;8043;49.388;12.128;2023-06-04T00:21:51;1.53;;;1.10;;
15889;SDS011;8043;49.388;12.128;2023-06-04T00:26:53;1.50;;;0.70;;
15889;SDS011;8043;49.388;12.128;2023-06-04T00:31:56;0.97;;;0.80;;
15889;SDS011;8043;49.388;12.128;2023-06-04T00:36:58;1.57;;;0.90;;
15889;SDS011;8043;49.388;12.128;2023-06-04T00:42:02;4.33;;;1.00;;
15889;SDS011;8043;49.388;12.128;2023-06-04T00:47:05;0.63;;;0.60;;
15889;SDS011;8043;49.388;12.128;2023-06-04T00:52:13;1.47;;;0.80;;
15889;SDS011;8043;49.388;12.128;2023-06-04T00:57:12;3.47;;;1.20;;
15889;SDS011;8043;49.388;12.128;2023-06-04T01:02:18;1.70;;;0.80;;
15889;SDS011;8043;49.388;12.128;2023-06-04T01:07:24;2.13;;;0.93;;
15889;SDS011;8043;49.388;12.128;2023-06-04T01:12:28;2.90;;;0.90;;
15889;SDS011;8043;49.388;12.128;2023-06-04T01:17:40;1.53;;;1.00;;
15889;SDS011;8043;49.388;12.128;2023-06-04T01:27:57;1.13;;;0.80;;
15889;SDS011;8043;49.388;12.128;2023-06-04T01:33:00;4.00;;;1.10;;
15889;SDS011;8043;49.388;12.128;2023-06-04T01:38:03;2.60;;;1.13;;
15889;SDS011;8043;49.388;12.128;2023-06-04T01:43:07;1.60;;;0.80;;
15889;SDS011;8043;49.388;12.128;2023-06-04T01:48:09;3.60;;;0.90;;
15889;SDS011;8043;49.388;12.128;2023-06-04T01:53:11;1.53;;;0.90;;
15889;SDS011;8043;49.388;12.128;2023-06-04T01:58:14;1.23;;;0.93;;
15889;SDS011;8043;49.388;12.128;2023-06-04T02:03:27;1.27;;;0.60;;
15889;SDS011;8043;49.388;12.128;2023-06-04T02:08:31;1.73;;;0.90;;
15889;SDS011;8043;49.388;12.128;2023-06-04T02:13:34;5.03;;;0.90;;
15889;SDS011;8043;49.388;12.128;2023-06-04T02:18:36;1.40;;;1.03;;
15889;SDS011;8043;49.388;12.128;2023-06-04T02:23:38;1.47;;;1.03;;
15889;SDS011;8043;49.388;12.128;2023-06-04T02:28:41;1.87;;;0.97;;
15889;SDS011;8043;49.388;12.128;2023-06-04T02:33:43;2.67;;;1.00;;
15889;SDS011;8043;49.388;12.128;2023-06-04T02:38:45;0.97;;;0.77;;
15889;SDS011;8043;49.388;12.128;2023-06-04T02:43:48;1.83;;;0.60;;
15889;SDS011;8043;49.388;12.128;2023-06-04T02:48:50;1.53;;;0.63;;
15889;SDS011;8043;49.388;12.128;2023-06-04T02:53:52;2.23;;;1.07;;
15889;SDS011;8043;49.388;12.128;2023-06-04T02:58:55;1.57;;;1.10;;
15889;SDS011;8043;49.388;12.128;2023-06-04T03:03:57;1.73;;;0.87;;
15889;SDS011;8043;49.388;12.128;2023-06-04T03:08:59;1.90;;;0.90;;
15889;SDS011;8043;49.388;12.128;2023-06-04T03:14:02;1.23;;;1.00;;
15889;SDS011;8043;49.388;12.128;2023-06-04T03:19:04;2.83;;;1.27;;
15889;SDS011;8043;49.388;12.128;2023-06-04T03:24:07;0.77;;;0.77;;
15889;SDS011;8043;49.388;12.128;2023-06-04T03:29:09;4.03;;;1.27;;
15889;SDS011;8043;49.388;12.128;2023-06-04T03:34:12;2.23;;;1.00;;
15889;SDS011;8043;49.388;12.128;2023-06-04T03:39:14;3.60;;;1.20;;
15889;SDS011;8043;49.388;12.128;2023-06-04T03:44:17;4.37;;;1.10;;
15889;SDS011;8043;49.388;12.128;2023-06-04T03:49:19;2.07;;;1.10;;
15889;SDS011;8043;49.388;12.128;2023-06-04T03:54:22;3.27;;;1.57;;
15889;SDS011;8043;49.388;12.128;2023-06-04T03:59:24;1.70;;;0.90;;
15889;SDS011;8043;49.388;12.128;2023-06-04T04:04:26;2.57;;;1.23;;
15889;SDS011;8043;49.388;12.128;2023-06-04T04:09:29;3.00;;;1.13;;
15889;SDS011;8043;49.388;12.128;2023-06-04T04:14:31;3.30;;;1.33;;
15889;SDS011;8043;49.388;12.128;2023-06-04T04:19:33;1.70;;;0.93;;
15889;SDS011;8043;49.388;12.128;2023-06-04T04:24:35;2.17;;;1.20;;
15889;SDS011;8043;49.388;12.128;2023-06-04T04:29:38;1.37;;;1.10;;
15889;SDS011;8043;49.388;12.128;2023-06-04T04:34:52;5.23;;;1.40;;
15889;SDS011;8043;49.388;12.128;2023-06-04T04:39:55;3.00;;;0.97;;
15889;SDS011;8043;49.388;12.128;2023-06-04T04:44:58;1.60;;;1.40;;
15889;SDS011;8043;49.388;12.128;2023-06-04T04:50:00;1.80;;;1.00;;
15889;SDS011;8043;49.388;12.128;2023-06-04T04:55:03;1.87;;;0.97;;
15889;SDS011;8043;49.388;12.128;2023-06-04T05:00:06;3.33;;;0.77;;
15889;SDS011;8043;49.388;12.128;2023-06-04T05:05:09;2.33;;;1.27;;
15889;SDS011;8043;49.388;12.128;2023-06-04T05:10:12;2.97;;;1.07;;
15889;SDS011;8043;49.388;12.128;2023-06-04T05:15:14;3.40;;;1.17;;
15889;SDS011;8043;49.388;12.128;2023-06-04T05:20:19;1.53;;;1.00;;
15889;SDS011;8043;49.388;12.128;2023-06-04T05:25:23;1.47;;;0.83;;
15889;SDS011;8043;49.388;12.128;2023-06-04T05:30:27;1.93;;;1.17;;
15889;SDS011;8043;49.388;12.128;2023-06-04T05:35:29;2.07;;;1.10;;
15889;SDS011;8043;49.388;12.128;2023-06-04T05:40:33;3.63;;;1.13;;
15889;SDS011;8043;49.388;12.128;2023-06-04T05:45:35;1.43;;;0.80;;
15889;SDS011;8043;49.388;12.128;2023-06-04T05:50:38;2.30;;;1.20;;
15889;SDS011;8043;49.388;12.128;2023-06-04T05:55:41;6.23;;;1.03;;
15889;SDS011;8043;49.388;12.128;2023-06-04T06:00:44;2.23;;;1.63;;
15889;SDS011;8043;49.388;12.128;2023-06-04T06:05:46;2.63;;;0.90;;
15889;SDS011;8043;49.388;12.128;2023-06-04T06:10:48;2.57;;;1.53;;
15889;SDS011;8043;49.388;12.128;2023-06-04T06:15:51;3.63;;;1.10;;
15889;SDS011;8043;49.388;12.128;2023-06-04T06:20:53;2.40;;;1.50;;
15889;SDS011;8043;49.388;12.128;2023-06-04T06:25:55;2.03;;;1.40;;
15889;SDS011;8043;49.388;12.128;2023-06-04T06:30:58;2.63;;;1.03;;
15889;SDS011;8043;49.388;12.128;2023-06-04T06:36:00;2.27;;;1.27;;
15889;SDS011;8043;49.388;12.128;2023-06-04T06:41:03;2.27;;;1.40;;
15889;SDS011;8043;49.388;12.128;2023-06-04T06:46:05;3.43;;;1.30;;
15889;SDS011;8043;49.388;12.128;2023-06-04T06:51:07;3.47;;;1.30;;
15889;SDS011;8043;49.388;12.128;2023-06-04T06:56:14;3.17;;;1.30;;
15889;SDS011;8043;49.388;12.128;2023-06-04T07:01:16;2.73;;;1.20;;
15889;SDS011;8043;49.388;12.128;2023-06-04T07:06:18;0.83;;;0.83;;
15889;SDS011;8043;49.388;12.128;2023-06-04T07:11:20;11.10;;;1.83;;
15889;SDS011;8043;49.388;12.128;2023-06-04T07:16:24;3.43;;;1.30;;
15889;SDS011;8043;49.388;12.128;2023-06-04T07:21:26;2.00;;;1.10;;
15889;SDS011;8043;49.388;12.128;2023-06-04T07:26:29;2.90;;;1.60;;
15889;SDS011;8043;49.388;12.128;2023-06-04T07:31:31;4.07;;;1.50;;
15889;SDS011;8043;49.388;12.128;2023-06-04T07:36:35;5.80;;;1.57;;
15889;SDS011;8043;49.388;12.128;2023-06-04T07:41:37;3.57;;;1.60;;
15889;SDS011;8043;49.388;12.128;2023-06-04T07:46:39;2.67;;;1.67;;
15889;SDS011;8043;49.388;12.128;2023-06-04T07:51:41;3.60;;;1.60;;
15889;SDS011;8043;49.388;12.128;2023-06-04T07:56:43;2.23;;;1.70;;
15889;SDS011;8043;49.388;12.128;2023-06-04T08:01:46;3.00;;;1.37;;
15889;SDS011;8043;49.388;12.128;2023-06-04T08:06:48;3.30;;;1.30;;
15889;SDS011;8043;49.388;12.128;2023-06-04T08:11:52;2.20;;;1.47;;
15889;SDS011;8043;49.388;12.128;2023-06-04T08:16:54;2.35;;;1.30;;
15889;SDS011;8043;49.388;12.128;2023-06-04T08:21:56;4.80;;;1.60;;
15889;SDS011;8043;49.388;12.128;2023-06-04T08:26:58;5.10;;;1.62;;
15889;SDS011;8043;49.388;12.128;2023-06-04T08:32:01;3.20;;;1.60;;
15889;SDS011;8043;49.388;12.128;2023-06-04T08:37:04;3.00;;;1.80;;
15889;SDS011;8043;49.388;12.128;2023-06-04T08:42:07;1.30;;;1.20;;
15889;SDS011;8043;49.388;12.128;2023-06-04T08:47:19;3.37;;;1.40;;
15889;SDS011;8043;49.388;12.128;2023-06-04T08:52:22;2.80;;;1.47;;
15889;SDS011;8043;49.388;12.128;2023-06-04T08:57:25;2.37;;;1.20;;
15889;SDS011;8043;49.388;12.128;2023-06-04T09:02:27;3.80;;;1.47;;
15889;SDS011;8043;49.388;12.128;2023-06-04T09:07:30;1.85;;;1.45;;
15889;SDS011;8043;49.388;12.128;2023-06-04T09:12:32;5.37;;;1.53;;
15889;SDS011;8043;49.388;12.128;2023-06-04T09:17:38;2.87;;;1.50;;
15889;SDS011;8043;49.388;12.128;2023-06-04T09:22:41;2.92;;;1.45;;
15889;SDS011;8043;49.388;12.128;2023-06-04T09:27:43;4.25;;;1.52;;
15889;SDS011;8043;49.388;12.128;2023-06-04T09:32:45;3.20;;;1.42;;
15889;SDS011;8043;49.388;12.128;2023-06-04T09:37:51;4.07;;;1.60;;
15889;SDS011;8043;49.388;12.128;2023-06-04T09:42:56;3.47;;;1.43;;
15889;SDS011;8043;49.388;12.128;2023-06-04T09:47:58;4.15;;;1.70;;
15889;SDS011;8043;49.388;12.128;2023-06-04T09:53:12;7.03;;;1.70;;
15889;SDS011;8043;49.388;12.128;2023-06-04T09:58:21;3.77;;;1.73;;
15889;SDS011;8043;49.388;12.128;2023-06-04T10:03:27;1.65;;;1.42;;
15889;SDS011;8043;49.388;12.128;2023-06-04T10:08:30;3.58;;;1.92;;
15889;SDS011;8043;49.388;12.128;2023-06-04T10:13:35;2.25;;;1.50;;
15889;SDS011;8043;49.388;12.128;2023-06-04T10:18:48;2.47;;;1.37;;
15889;SDS011;8043;49.388;12.128;2023-06-04T10:23:55;4.62;;;1.65;;
15889;SDS011;8043;49.388;12.128;2023-06-04T10:29:00;4.17;;;1.60;;
15889;SDS011;8043;49.388;12.128;2023-06-04T10:34:03;2.25;;;1.60;;
15889;SDS011;8043;49.388;12.128;2023-06-04T10:39:05;1.72;;;1.50;;
15889;SDS011;8043;49.388;12.128;2023-06-04T10:44:08;2.65;;;1.30;;
15889;SDS011;8043;49.388;12.128;2023-06-04T10:49:10;1.93;;;1.57;;
15889;SDS011;8043;49.388;12.128;2023-06-04T10:54:21;2.22;;;1.62;;
15889;SDS011;8043;49.388;12.128;2023-06-04T10:59:19;2.47;;;1.77;;
15889;SDS011;8043;49.388;12.128;2023-06-04T11:04:24;3.40;;;1.50;;
15889;SDS011;8043;49.388;12.128;2023-06-04T11:09:27;4.83;;;2.95;;
15889;SDS011;8043;49.388;12.128;2023-06-04T11:14:29;1.85;;;1.45;;
15889;SDS011;8043;49.388;12.128;2023-06-04T11:19:35;3.15;;;1.90;;
15889;SDS011;8043;49.388;12.128;2023-06-04T11:24:38;3.83;;;1.65;;
15889;SDS011;8043;49.388;12.128;2023-06-04T11:29:40;4.85;;;1.85;;
15889;SDS011;8043;49.388;12.128;2023-06-04T11:34:42;3.55;;;1.92;;
15889;SDS011;8043;49.388;12.128;2023-06-04T11:39:45;1.95;;;1.50;;
15889;SDS011;8043;49.388;12.128;2023-06-04T11:44:47;2.15;;;1.30;;
15889;SDS011;8043;49.388;12.128;2023-06-04T11:49:56;2.22;;;1.60;;
15889;SDS011;8043;49.388;12.128;2023-06-04T11:54:58;3.05;;;1.65;;
15889;SDS011;8043;49.388;12.128;2023-06-04T12:00:01;2.58;;;1.75;;
15889;SDS011;8043;49.388;12.128;2023-06-04T12:05:17;1.67;;;1.40;;
15889;SDS011;8043;49.388;12.128;2023-06-04T12:10:18;3.40;;;1.77;;
15889;SDS011;8043;49.388;12.128;2023-06-04T12:15:21;3.27;;;1.70;;
15889;SDS011;8043;49.388;12.128;2023-06-04T12:25:38;3.62;;;1.67;;
15889;SDS011;8043;49.388;12.128;2023-06-04T12:30:41;3.22;;;1.80;;
15889;SDS011;8043;49.388;12.128;2023-06-04T12:35:43;5.00;;;1.47;;
15889;SDS011;8043;49.388;12.128;2023-06-04T12:40:45;2.17;;;1.60;;
15889;SDS011;8043;49.388;12.128;2023-06-04T12:45:48;4.90;;;1.50;;
15889;SDS011;8043;49.388;12.128;2023-06-04T12:50:50;3.97;;;1.80;;
15889;SDS011;8043;49.388;12.128;2023-06-04T12:55:52;3.30;;;1.87;;
15889;SDS011;8043;49.388;12.128;2023-06-04T13:00:55;2.75;;;1.82;;
15889;SDS011;8043;49.388;12.128;2023-06-04T13:05:57;2.45;;;1.80;;
15889;SDS011;8043;49.388;12.128;2023-06-04T13:11:00;3.77;;;1.62;;
15889;SDS011;8043;49.388;12.128;2023-06-04T13:16:03;2.58;;;1.87;;
15889;SDS011;8043;49.388;12.128;2023-06-04T13:21:06;3.22;;;2.02;;
15889;SDS011;8043;49.388;12.128;2023-06-04T13:26:08;2.67;;;1.77;;
15889;SDS011;8043;49.388;12.128;2023-06-04T13:31:13;3.37;;;1.45;;
15889;SDS011;8043;49.388;12.128;2023-06-04T13:36:16;3.20;;;1.85;;
15889;SDS011;8043;49.388;12.128;2023-06-04T13:41:18;2.08;;;1.70;;
15889;SDS011;8043;49.388;12.128;2023-06-04T13:46:21;1.82;;;1.47;;
15889;SDS011;8043;49.388;12.128;2023-06-04T13:51:24;6.55;;;1.70;;
15889;SDS011;8043;49.388;12.128;2023-06-04T13:56:26;3.10;;;1.80;;
15889;SDS011;8043;49.388;12.128;2023-06-04T14:01:28;3.37;;;2.10;;
15889;SDS011;8043;49.388;12.128;2023-06-04T14:06:32;2.72;;;1.70;;
15889;SDS011;8043;49.388;12.128;2023-06-04T14:11:37;4.15;;;2.00;;
15889;SDS011;8043;49.388;12.128;2023-06-04T14:16:40;4.58;;;2.00;;
15889;SDS011;8043;49.388;12.128;2023-06-04T14:21:42;3.05;;;2.00;;
15889;SDS011;8043;49.388;12.128;2023-06-04T14:26:45;2.40;;;1.65;;
15889;SDS011;8043;49.388;12.128;2023-06-04T14:31:47;4.20;;;1.90;;
15889;SDS011;8043;49.388;12.128;2023-06-04T14:36:49;3.52;;;1.90;;
15889;SDS011;8043;49.388;12.128;2023-06-04T14:41:52;2.83;;;1.77;;
15889;SDS011;8043;49.388;12.128;2023-06-04T14:46:54;3.10;;;2.10;;
15889;SDS011;8043;49.388;12.128;2023-06-04T14:51:57;4.22;;;2.00;;
15889;SDS011;8043;49.388;12.128;2023-06-04T14:56:59;4.28;;;1.62;;
15889;SDS011;8043;49.388;12.128;2023-06-04T15:02:01;4.25;;;2.50;;
15889;SDS011;8043;49.388;12.128;2023-06-04T15:07:03;4.62;;;2.77;;
15889;SDS011;8043;49.388;12.128;2023-06-04T15:12:06;4.22;;;2.42;;
15889;SDS011;8043;49.388;12.128;2023-06-04T15:17:08;7.17;;;2.80;;
15889;SDS011;8043;49.388;12.128;2023-06-04T15:22:10;3.67;;;2.20;;
15889;SDS011;8043;49.388;12.128;2023-06-04T15:27:12;3.22;;;2.00;;
15889;SDS011;8043;49.388;12.128;2023-06-04T15:32:14;4.37;;;2.17;;
15889;SDS011;8043;49.388;12.128;2023-06-04T15:37:17;4.15;;;1.90;;
15889;SDS011;8043;49.388;12.128;2023-06-04T15:42:19;4.08;;;2.00;;
15889;SDS011;8043;49.388;12.128;2023-06-04T15:47:21;6.83;;;2.37;;
15889;SDS011;8043;49.388;12.128;2023-06-04T15:52:24;5.40;;;2.37;;
15889;SDS011;8043;49.388;12.128;2023-06-04T15:57:26;4.45;;;2.30;;
15889;SDS011;8043;49.388;12.128;2023-06-04T16:02:28;2.83;;;2.10;;
15889;SDS011;8043;49.388;12.128;2023-06-04T16:07:31;4.97;;;2.05;;
15889;SDS011;8043;49.388;12.128;2023-06-04T16:12:33;5.70;;;1.80;;
15889;SDS011;8043;49.388;12.128;2023-06-04T16:17:35;3.35;;;2.10;;
15889;SDS011;8043;49.388;12.128;2023-06-04T16:22:40;2.62;;;1.72;;
15889;SDS011;8043;49.388;12.128;2023-06-04T16:27:42;3.33;;;1.77;;
15889;SDS011;8043;49.388;12.128;2023-06-04T16:32:45;3.30;;;2.12;;
15889;SDS011;8043;49.388;12.128;2023-06-04T16:37:48;4.80;;;2.40;;
15889;SDS011;8043;49.388;12.128;2023-06-04T16:42:50;3.20;;;1.85;;
15889;SDS011;8043;49.388;12.128;2023-06-04T16:47:53;4.70;;;1.70;;
15889;SDS011;8043;49.388;12.128;2023-06-04T16:52:56;4.20;;;2.30;;
15889;SDS011;8043;49.388;12.128;2023-06-04T16:57:59;3.72;;;1.80;;
15889;SDS011;8043;49.388;12.128;2023-06-04T17:03:03;3.08;;;1.70;;
15889;SDS011;8043;49.388;12.128;2023-06-04T17:08:05;2.62;;;1.57;;
15889;SDS011;8043;49.388;12.128;2023-06-04T17:13:07;4.07;;;2.07;;
15889;SDS011;8043;49.388;12.128;2023-06-04T17:18:10;2.87;;;1.77;;
15889;SDS011;8043;49.388;12.128;2023-06-04T17:23:24;5.42;;;1.72;;
15889;SDS011;8043;49.388;12.128;2023-06-04T17:28:27;3.37;;;1.75;;
15889;SDS011;8043;49.388;12.128;2023-06-04T17:33:32;3.25;;;1.75;;
15889;SDS011;8043;49.388;12.128;2023-06-04T17:38:34;5.17;;;1.77;;
15889;SDS011;8043;49.388;12.128;2023-06-04T17:43:37;3.00;;;1.70;;
15889;SDS011;8043;49.388;12.128;2023-06-04T17:48:42;2.33;;;1.70;;
15889;SDS011;8043;49.388;12.128;2023-06-04T17:53:45;2.98;;;1.60;;
15889;SDS011;8043;49.388;12.128;2023-06-04T17:58:47;4.12;;;1.52;;
15889;SDS011;8043;49.388;12.128;2023-06-04T18:03:49;1.98;;;1.32;;
15889;SDS011;8043;49.388;12.128;2023-06-04T18:08:52;2.72;;;1.25;;
15889;SDS011;8043;49.388;12.128;2023-06-04T18:13:54;3.08;;;1.55;;
15889;SDS011;8043;49.388;12.128;2023-06-04T18:18:57;2.45;;;1.52;;
15889;SDS011;8043;49.388;12.128;2023-06-04T18:23:59;3.75;;;1.95;;
15889;SDS011;8043;49.388;12.128;2023-06-04T18:29:01;3.08;;;1.55;;
15889;SDS011;8043;49.388;12.128;2023-06-04T18:34:03;3.47;;;1.77;;
15889;SDS011;8043;49.388;12.128;2023-06-04T18:39:07;2.58;;;1.47;;
15889;SDS011;8043;49.388;12.128;2023-06-04T18:44:09;2.70;;;1.60;;
15889;SDS011;8043;49.388;12.128;2023-06-04T18:49:12;2.58;;;1.32;;
15889;SDS011;8043;49.388;12.128;2023-06-04T18:54:14;3.05;;;1.70;;
15889;SDS011;8043;49.388;12.128;2023-06-04T18:59:18;2.00;;;1.33;;
15889;SDS011;8043;49.388;12.128;2023-06-04T19:04:20;1.75;;;1.25;;
15889;SDS011;8043;49.388;12.128;2023-06-04T19:09:22;1.35;;;1.10;;
15889;SDS011;8043;49.388;12.128;2023-06-04T19:14:25;1.80;;;1.17;;
15889;SDS011;8043;49.388;12.128;2023-06-04T19:19:28;1.97;;;1.43;;
15889;SDS011;8043;49.388;12.128;2023-06-04T19:24:31;2.23;;;1.37;;
15889;SDS011;8043;49.388;12.128;2023-06-04T19:29:34;4.30;;;1.57;;
15889;SDS011;8043;49.388;12.128;2023-06-04T19:34:36;3.53;;;1.90;;
15889;SDS011;8043;49.388;12.128;2023-06-04T19:39:39;5.00;;;1.33;;
15889;SDS011;8043;49.388;12.128;2023-06-04T19:44:41;3.03;;;1.37;;
15889;SDS011;8043;49.388;12.128;2023-06-04T19:49:43;2.40;;;1.20;;
15889;SDS011;8043;49.388;12.128;2023-06-04T19:54:47;1.60;;;1.13;;
15889;SDS011;8043;49.388;12.128;2023-06-04T19:59:50;2.10;;;1.17;;
15889;SDS011;8043;49.388;12.128;2023-06-04T20:04:52;2.47;;;1.37;;
15889;SDS011;8043;49.388;12.128;2023-06-04T20:09:55;2.70;;;1.37;;
15889;SDS011;8043;49.388;12.128;2023-06-04T20:15:00;4.40;;;1.53;;
15889;SDS011;8043;49.388;12.128;2023-06-04T20:20:03;2.10;;;1.20;;
15889;SDS011;8043;49.388;12.128;2023-06-04T20:25:06;3.93;;;1.90;;
15889;SDS011;8043;49.388;12.128;2023-06-04T20:30:09;3.83;;;1.50;;
15889;SDS011;8043;49.388;12.128;2023-06-04T20:35:13;1.73;;;1.10;;
15889;SDS011;8043;49.388;12.128;2023-06-04T20:40:16;2.93;;;1.40;;
15889;SDS011;8043;49.388;12.128;2023-06-04T20:45:18;1.80;;;1.33;;
15889;SDS011;8043;49.388;12.128;2023-06-04T20:50:21;2.57;;;1.43;;
15889;SDS011;8043;49.388;12.128;2023-06-04T20:55:23;5.37;;;1.80;;
15889;SDS011;8043;49.388;12.128;2023-06-04T21:00:26;3.87;;;1.47;;
15889;SDS011;8043;49.388;12.128;2023-06-04T21:05:29;3.83;;;1.73;;
15889;SDS011;8043;49.388;12.128;2023-06-04T21:10:33;2.80;;;1.60;;
15889;SDS011;8043;49.388;12.128;2023-06-04T21:15:35;2.83;;;1.50;;
15889;SDS011;8043;49.388;12.128;2023-06-04T21:20:38;4.13;;;1.27;;
15889;SDS011;8043;49.388;12.128;2023-06-04T21:25:40;3.57;;;1.80;;
15889;SDS011;8043;49.388;12.128;2023-06-04T21:30:44;1.37;;;1.13;;
15889;SDS011;8043;49.388;12.128;2023-06-04T21:35:46;2.40;;;1.37;;
15889;SDS011;8043;49.388;12.128;2023-06-04T21:40:49;2.10;;;1.40;;
15889;SDS011;8043;49.388;12.128;2023-06-04T21:45:51;2.07;;;1.40;;
15889;SDS011;8043;49.388;12.128;2023-06-04T21:50:53;2.97;;;1.80;;
15889;SDS011;8043;49.388;12.128;2023-06-04T21:55:55;2.00;;;1.23;;
15889;SDS011;8043;49.388;12.128;2023-06-04T22:00:58;3.93;;;1.50;;
15889;SDS011;8043;49.388;12.128;2023-06-04T22:06:00;2.70;;;1.50;;
15889;SDS011;8043;49.388;12.128;2023-06-04T22:11:03;2.83;;;1.60;;
15889;SDS011;8043;49.388;12.128;2023-06-04T22:16:05;2.60;;;1.40;;
15889;SDS011;8043;49.388;12.128;2023-06-04T22:21:07;2.67;;;1.23;;
15889;SDS011;8043;49.388;12.128;2023-06-04T22:26:10;3.10;;;1.33;;
15889;SDS011;8043;49.388;12.128;2023-06-04T22:31:12;4.73;;;1.60;;
15889;SDS011;8043;49.388;12.128;2023-06-04T22:36:14;2.47;;;1.13;;
15889;SDS011;8043;49.388;12.128;2023-06-04T22:41:16;2.20;;;1.40;;
15889;SDS011;8043;49.388;12.128;2023-06-04T22:46:18;1.87;;;1.27;;
15889;SDS011;8043;49.388;12.128;2023-06-04T22:51:21;1.77;;;1.13;;
15889;SDS011;8043;49.388;12.128;2023-06-04T22:56:23;1.90;;;0.70;;
15889;SDS011;8043;49.388;12.128;2023-06-04T23:01:25;2.20;;;1.20;;
15889;SDS011;8043;49.388;12.128;2023-06-04T23:06:28;2.43;;;1.07;;
15889;SDS011;8043;49.388;12.128;2023-06-04T23:11:30;2.33;;;1.40;;
15889;SDS011;8043;49.388;12.128;2023-06-04T23:16:32;3.57;;;1.13;;
15889;SDS011;8043;49.388;12.128;2023-06-04T23:21:34;1.17;;;0.90;;
15889;SDS011;8043;49.388;12.128;2023-06-04T23:26:38;5.23;;;1.40;;
15889;SDS011;8043;49.388;12.128;2023-06-04T23:31:41;3.37;;;0.97;;
15889;SDS011;8043;49.388;12.128;2023-06-04T23:36:43;2.83;;;1.30;;
15889;SDS011;8043;49.388;12.128;2023-06-04T23:41:46;6.60;;;0.90;;
15889;SDS011;8043;49.388;12.128;2023-06-04T23:46:48;1.13;;;0.77;;
15889;SDS011;8043;49.388;12.128;2023-06-04T23:51:50;2.00;;;1.50;;
15889;SDS011;8043;49.388;12.128;2023-06-04T23:56:52;2.13;;;1.40;;
